Mosier, Oregon
Current Conditions -  °F | °C
As of 1:59 PM on Tuesday 21 Oct 2014 (Local Time) from K4S2 Reporting Station
Overcast Overcast  
Wind Chill: 59°   Ceiling: 6000
Heat Index: 59°   Visibility: 10mi
Dew Point: 50°   Wind: 6mph
Humidity: 72%   Direction: 290°WNW
Pressure: 29.98"   Gusts: NA
Location:  45.68°N, 121.4°W
Report Text: K4S2 212059Z AUTO 29005KT 10SM SCT045 OVC060 15/10 A2998 RMK AO2 SLP167 T01500100
Loading
Personal Weather Stations






























Interactive Weather Map
Tropical Storm Tracking
New forecast layout! Learn more

10-Day Weather Forecast

Advertisements
Track Severe Weather on mobile